createdAt,value
2018-12-10T00:00:36.785Z,75.5
2018-12-10T00:10:41.951Z,75.7
2018-12-10T00:20:45.391Z,76.3
2018-12-10T00:30:48.798Z,76
2018-12-10T00:40:52.216Z,75.4
2018-12-10T00:50:55.628Z,74.2
2018-12-10T01:00:59.042Z,73.8
2018-12-10T01:11:02.460Z,73.4
2018-12-10T01:21:05.890Z,72
2018-12-10T01:31:09.295Z,69.5
2018-12-10T01:41:12.777Z,71.4
2018-12-10T01:51:16.204Z,71.4
2018-12-10T02:01:19.614Z,70.9
2018-12-10T02:11:23.039Z,70.8
2018-12-10T02:21:26.491Z,71.4
2018-12-10T02:31:29.906Z,71.5
2018-12-10T02:41:33.317Z,70.7
2018-12-10T02:51:36.765Z,71.4
2018-12-10T03:01:40.191Z,70.3
2018-12-10T03:11:43.694Z,70.8
2018-12-10T03:21:47.146Z,71.6
2018-12-10T03:31:50.613Z,71.6
2018-12-10T03:41:54.058Z,72.1
2018-12-10T03:51:57.511Z,72.5
2018-12-10T04:02:00.958Z,72.8
2018-12-10T04:12:04.378Z,72.2
2018-12-10T04:22:07.786Z,72.5
2018-12-10T04:32:11.188Z,72.2
2018-12-10T04:42:14.660Z,72.2
2018-12-10T04:52:18.070Z,73.1
2018-12-10T05:02:21.494Z,72.7
2018-12-10T05:12:24.895Z,72.9
2018-12-10T05:22:28.319Z,73.5
2018-12-10T05:32:31.749Z,73.4
2018-12-10T05:42:35.148Z,73.9
2018-12-10T05:52:38.595Z,74.5
2018-12-10T06:02:42.014Z,74.3
2018-12-10T06:12:45.425Z,75
2018-12-10T06:22:48.835Z,75.3
2018-12-10T06:32:52.261Z,75.7
2018-12-10T06:42:55.681Z,75.7
2018-12-10T06:52:59.076Z,75.9
2018-12-10T07:03:02.482Z,75.1
2018-12-10T07:13:05.879Z,74.8
2018-12-10T07:23:09.339Z,74.4
2018-12-10T07:33:12.865Z,74
2018-12-10T07:43:16.266Z,74
2018-12-10T07:53:19.669Z,73.8
2018-12-10T08:03:23.103Z,74.5
2018-12-10T08:13:26.510Z,72.9
2018-12-10T08:23:29.967Z,73.1
2018-12-10T08:33:33.433Z,72.9
2018-12-10T08:43:36.841Z,73.6
2018-12-10T08:53:40.255Z,67.9
2018-12-10T09:03:43.645Z,71.7
2018-12-10T09:13:47.077Z,71.9
2018-12-10T09:23:50.476Z,72.4
2018-12-10T09:33:53.890Z,71.7
2018-12-10T09:43:58.313Z,70.5
2018-12-10T09:54:01.755Z,70.9
2018-12-10T10:04:05.178Z,71.9
2018-12-10T10:14:08.636Z,70.9
2018-12-10T10:24:12.051Z,67.7
2018-12-10T10:34:15.478Z,66.8
2018-12-10T10:44:18.897Z,65.8
2018-12-10T10:54:22.394Z,66.6
2018-12-10T11:04:25.823Z,67.6
2018-12-10T11:14:29.253Z,65.4
2018-12-10T11:24:32.651Z,66.1
2018-12-10T11:34:36.082Z,65.7
2018-12-10T11:44:39.479Z,65.1
2018-12-10T11:54:42.876Z,65.1
2018-12-10T12:04:46.295Z,64.9
2018-12-10T12:14:49.697Z,66.4
2018-12-10T12:24:53.120Z,65.5
2018-12-10T12:34:56.615Z,66.4
2018-12-10T12:45:00.026Z,65.5
2018-12-10T12:55:03.429Z,66.7
2018-12-10T13:05:06.908Z,65.7
2018-12-10T13:15:10.311Z,66.2
2018-12-10T13:25:13.714Z,65.3
2018-12-10T13:35:17.199Z,66.4
2018-12-10T13:45:20.630Z,62.7
2018-12-10T13:55:29.046Z,62
2018-12-10T14:05:32.498Z,61.8
2018-12-10T14:15:35.922Z,60.7
2018-12-10T14:25:39.359Z,58.7
2018-12-10T14:35:42.778Z,60.6
2018-12-10T14:45:46.184Z,63.7
2018-12-10T14:55:49.611Z,63.8
2018-12-10T15:05:53.021Z,64
2018-12-10T15:15:56.426Z,65.5
2018-12-10T15:25:59.840Z,66.3
2018-12-10T15:36:03.256Z,67.6
2018-12-10T15:46:06.659Z,69.2
2018-12-10T15:56:10.065Z,69.9
2018-12-10T16:06:13.490Z,68.3
2018-12-10T16:16:16.913Z,68.7
2018-12-10T16:26:20.338Z,69.2
2018-12-10T16:36:23.778Z,69.8
2018-12-10T16:46:27.190Z,69
2018-12-10T16:56:30.616Z,69.4
2018-12-10T17:06:34.042Z,68.4
2018-12-10T17:16:37.476Z,68.5
2018-12-10T17:26:40.886Z,69.8
2018-12-10T17:36:44.296Z,69.9
2018-12-10T17:46:47.701Z,69.9
2018-12-10T17:56:51.114Z,70.3
2018-12-10T18:06:54.524Z,70.1
2018-12-10T18:16:57.962Z,70.1
2018-12-10T18:27:01.394Z,71.4
2018-12-10T18:37:04.837Z,69.2
2018-12-10T18:47:08.262Z,68.7
2018-12-10T18:57:11.692Z,68.3
2018-12-10T19:07:15.115Z,68.6
2018-12-10T19:17:18.714Z,69.3
2018-12-10T19:27:22.327Z,68.8
2018-12-10T19:37:25.786Z,68.3
2018-12-10T19:47:29.234Z,67.5
2018-12-10T19:57:32.648Z,67.5
2018-12-10T20:07:36.089Z,69.9
2018-12-10T20:17:39.507Z,72
2018-12-10T20:27:44.052Z,72.3
2018-12-10T20:37:47.547Z,72.4
2018-12-10T20:47:51.351Z,72.2
2018-12-10T20:57:54.751Z,72.3
2018-12-10T21:07:58.153Z,71.9
2018-12-10T21:18:01.579Z,71.3
2018-12-10T21:28:05.017Z,71.1
2018-12-10T21:38:08.458Z,71.6
2018-12-10T21:48:11.823Z,70.9
2018-12-10T21:58:15.251Z,70.7
2018-12-10T22:08:18.650Z,70.5
2018-12-10T22:18:22.104Z,69.3
2018-12-10T22:28:25.518Z,66.7
2018-12-10T22:38:28.922Z,66.2
2018-12-10T22:48:32.353Z,66.4
2018-12-10T22:58:35.762Z,67.6
2018-12-10T23:08:39.167Z,67.9
2018-12-10T23:18:42.619Z,68.8
2018-12-10T23:28:45.990Z,68.9
2018-12-10T23:38:49.407Z,69
2018-12-10T23:48:52.836Z,68.6
2018-12-10T23:58:56.246Z,68.1
